sensor_id;sensor_type;location;lat;lon;timestamp;temperature;humidity
61000;SHT31;46879;45.658;11.814;2023-04-28T00:04:58;19.51;67.58
61000;SHT31;46879;45.658;11.814;2023-04-28T00:09:58;19.51;67.81
61000;SHT31;46879;45.658;11.814;2023-04-28T00:14:59;19.53;67.73
61000;SHT31;46879;45.658;11.814;2023-04-28T00:20:00;19.50;67.86
61000;SHT31;46879;45.658;11.814;2023-04-28T00:25:00;19.49;67.76
61000;SHT31;46879;45.658;11.814;2023-04-28T00:30:01;19.51;68.11
61000;SHT31;46879;45.658;11.814;2023-04-28T00:35:02;19.49;67.70
61000;SHT31;46879;45.658;11.814;2023-04-28T00:40:03;19.47;67.89
61000;SHT31;46879;45.658;11.814;2023-04-28T00:45:04;19.49;68.18
61000;SHT31;46879;45.658;11.814;2023-04-28T00:50:06;19.49;68.28
61000;SHT31;46879;45.658;11.814;2023-04-28T00:55:08;19.51;68.51
61000;SHT31;46879;45.658;11.814;2023-04-28T01:00:09;19.50;68.22
61000;SHT31;46879;45.658;11.814;2023-04-28T01:05:11;19.49;68.46
61000;SHT31;46879;45.658;11.814;2023-04-28T01:10:13;19.49;68.19
61000;SHT31;46879;45.658;11.814;2023-04-28T01:15:17;19.49;68.18
61000;SHT31;46879;45.658;11.814;2023-04-28T01:20:18;19.50;68.63
61000;SHT31;46879;45.658;11.814;2023-04-28T01:25:18;19.47;68.47
61000;SHT31;46879;45.658;11.814;2023-04-28T01:30:19;19.50;68.47
61000;SHT31;46879;45.658;11.814;2023-04-28T01:35:20;19.51;68.50
61000;SHT31;46879;45.658;11.814;2023-04-28T01:40:21;19.53;68.44
61000;SHT31;46879;45.658;11.814;2023-04-28T01:45:21;19.47;68.80
61000;SHT31;46879;45.658;11.814;2023-04-28T01:50:22;19.50;68.82
61000;SHT31;46879;45.658;11.814;2023-04-28T01:55:26;19.50;68.88
61000;SHT31;46879;45.658;11.814;2023-04-28T02:00:27;19.50;68.75
61000;SHT31;46879;45.658;11.814;2023-04-28T02:05:27;19.49;68.87
61000;SHT31;46879;45.658;11.814;2023-04-28T02:10:28;19.51;68.95
61000;SHT31;46879;45.658;11.814;2023-04-28T02:15:29;19.51;68.90
61000;SHT31;46879;45.658;11.814;2023-04-28T02:20:29;19.51;68.95
61000;SHT31;46879;45.658;11.814;2023-04-28T02:25:30;19.50;68.94
61000;SHT31;46879;45.658;11.814;2023-04-28T02:30:31;19.49;68.79
61000;SHT31;46879;45.658;11.814;2023-04-28T02:35:31;19.51;68.68
61000;SHT31;46879;45.658;11.814;2023-04-28T02:40:32;19.49;68.83
61000;SHT31;46879;45.658;11.814;2023-04-28T02:45:32;19.49;68.58
61000;SHT31;46879;45.658;11.814;2023-04-28T02:50:33;19.47;68.77
61000;SHT31;46879;45.658;11.814;2023-04-28T02:55:34;19.46;68.76
61000;SHT31;46879;45.658;11.814;2023-04-28T03:00:34;19.47;68.77
61000;SHT31;46879;45.658;11.814;2023-04-28T03:05:35;19.46;68.64
61000;SHT31;46879;45.658;11.814;2023-04-28T03:10:36;19.45;68.94
61000;SHT31;46879;45.658;11.814;2023-04-28T03:15:36;19.49;68.75
61000;SHT31;46879;45.658;11.814;2023-04-28T03:20:37;19.46;68.95
61000;SHT31;46879;45.658;11.814;2023-04-28T03:25:37;19.47;69.07
61000;SHT31;46879;45.658;11.814;2023-04-28T03:30:38;19.47;69.05
61000;SHT31;46879;45.658;11.814;2023-04-28T03:35:39;19.47;69.10
61000;SHT31;46879;45.658;11.814;2023-04-28T03:40:39;19.47;69.17
61000;SHT31;46879;45.658;11.814;2023-04-28T03:45:40;19.45;69.23
61000;SHT31;46879;45.658;11.814;2023-04-28T03:50:40;19.46;69.02
61000;SHT31;46879;45.658;11.814;2023-04-28T03:55:43;19.46;69.27
61000;SHT31;46879;45.658;11.814;2023-04-28T04:00:43;19.43;69.07
61000;SHT31;46879;45.658;11.814;2023-04-28T04:05:44;19.42;69.25
61000;SHT31;46879;45.658;11.814;2023-04-28T04:10:45;19.46;69.09
61000;SHT31;46879;45.658;11.814;2023-04-28T04:15:45;19.47;69.08
61000;SHT31;46879;45.658;11.814;2023-04-28T04:20:46;19.45;69.15
61000;SHT31;46879;45.658;11.814;2023-04-28T04:25:47;19.42;69.25
61000;SHT31;46879;45.658;11.814;2023-04-28T04:30:48;19.45;69.18
61000;SHT31;46879;45.658;11.814;2023-04-28T04:35:48;19.45;69.18
61000;SHT31;46879;45.658;11.814;2023-04-28T04:40:49;19.43;69.25
61000;SHT31;46879;45.658;11.814;2023-04-28T04:45:50;19.45;69.25
61000;SHT31;46879;45.658;11.814;2023-04-28T04:50:50;19.43;69.46
61000;SHT31;46879;45.658;11.814;2023-04-28T04:55:51;19.42;69.47
61000;SHT31;46879;45.658;11.814;2023-04-28T05:00:51;19.42;69.50
61000;SHT31;46879;45.658;11.814;2023-04-28T05:05:52;19.42;69.47
61000;SHT31;46879;45.658;11.814;2023-04-28T05:10:53;19.42;69.59
61000;SHT31;46879;45.658;11.814;2023-04-28T05:15:53;19.43;69.61
61000;SHT31;46879;45.658;11.814;2023-04-28T05:20:54;19.43;69.54
61000;SHT31;46879;45.658;11.814;2023-04-28T05:25:54;19.42;69.61
61000;SHT31;46879;45.658;11.814;2023-04-28T05:30:55;19.42;69.63
61000;SHT31;46879;45.658;11.814;2023-04-28T05:35:56;19.46;69.66
61000;SHT31;46879;45.658;11.814;2023-04-28T05:40:57;19.46;69.13
61000;SHT31;46879;45.658;11.814;2023-04-28T05:45:57;19.46;69.19
61000;SHT31;46879;45.658;11.814;2023-04-28T05:50:58;19.50;68.78
61000;SHT31;46879;45.658;11.814;2023-04-28T05:55:59;19.49;68.66
61000;SHT31;46879;45.658;11.814;2023-04-28T06:00:59;19.46;68.60
61000;SHT31;46879;45.658;11.814;2023-04-28T06:06:00;19.45;67.64
61000;SHT31;46879;45.658;11.814;2023-04-28T06:11:01;19.45;68.03
61000;SHT31;46879;45.658;11.814;2023-04-28T06:16:01;19.42;67.62
61000;SHT31;46879;45.658;11.814;2023-04-28T06:21:02;19.43;67.46
61000;SHT31;46879;45.658;11.814;2023-04-28T06:26:03;19.45;67.33
61000;SHT31;46879;45.658;11.814;2023-04-28T06:31:03;19.43;67.03
61000;SHT31;46879;45.658;11.814;2023-04-28T06:36:04;19.43;66.90
61000;SHT31;46879;45.658;11.814;2023-04-28T06:41:05;19.42;66.76
61000;SHT31;46879;45.658;11.814;2023-04-28T06:46:06;19.42;66.47
61000;SHT31;46879;45.658;11.814;2023-04-28T06:51:06;19.42;66.42
61000;SHT31;46879;45.658;11.814;2023-04-28T06:56:07;19.42;66.37
61000;SHT31;46879;45.658;11.814;2023-04-28T07:01:07;19.40;66.34
61000;SHT31;46879;45.658;11.814;2023-04-28T07:06:08;19.40;66.42
61000;SHT31;46879;45.658;11.814;2023-04-28T07:11:09;19.40;66.23
61000;SHT31;46879;45.658;11.814;2023-04-28T07:16:09;19.40;66.39
61000;SHT31;46879;45.658;11.814;2023-04-28T07:21:10;19.39;66.15
61000;SHT31;46879;45.658;11.814;2023-04-28T07:26:11;19.37;66.13
61000;SHT31;46879;45.658;11.814;2023-04-28T07:31:11;19.39;66.16
61000;SHT31;46879;45.658;11.814;2023-04-28T07:36:12;19.39;66.17
61000;SHT31;46879;45.658;11.814;2023-04-28T07:41:12;19.40;65.86
61000;SHT31;46879;45.658;11.814;2023-04-28T07:46:13;19.37;65.82
61000;SHT31;46879;45.658;11.814;2023-04-28T07:51:14;19.36;65.84
61000;SHT31;46879;45.658;11.814;2023-04-28T07:56:14;19.40;65.81
61000;SHT31;46879;45.658;11.814;2023-04-28T08:01:15;19.42;65.80
61000;SHT31;46879;45.658;11.814;2023-04-28T08:06:16;19.40;65.64
61000;SHT31;46879;45.658;11.814;2023-04-28T08:11:16;19.40;65.68
61000;SHT31;46879;45.658;11.814;2023-04-28T08:16:17;19.40;65.62
61000;SHT31;46879;45.658;11.814;2023-04-28T08:21:18;19.39;65.67
61000;SHT31;46879;45.658;11.814;2023-04-28T08:26:19;19.40;65.37
61000;SHT31;46879;45.658;11.814;2023-04-28T08:31:20;19.40;65.29
61000;SHT31;46879;45.658;11.814;2023-04-28T08:36:20;19.40;65.25
61000;SHT31;46879;45.658;11.814;2023-04-28T08:41:22;19.39;65.18
61000;SHT31;46879;45.658;11.814;2023-04-28T08:46:27;19.40;64.92
61000;SHT31;46879;45.658;11.814;2023-04-28T08:51:43;19.40;64.98
61000;SHT31;46879;45.658;11.814;2023-04-28T08:56:44;19.39;64.88
61000;SHT31;46879;45.658;11.814;2023-04-28T09:01:48;19.40;64.80
61000;SHT31;46879;45.658;11.814;2023-04-28T09:06:49;19.40;64.71
61000;SHT31;46879;45.658;11.814;2023-04-28T09:11:58;19.42;64.65
61000;SHT31;46879;45.658;11.814;2023-04-28T09:17:01;19.42;64.65
61000;SHT31;46879;45.658;11.814;2023-04-28T09:22:03;19.40;64.49
61000;SHT31;46879;45.658;11.814;2023-04-28T09:27:06;19.43;64.53
61000;SHT31;46879;45.658;11.814;2023-04-28T09:32:21;19.45;64.78
61000;SHT31;46879;45.658;11.814;2023-04-28T09:37:25;19.45;64.67
61000;SHT31;46879;45.658;11.814;2023-04-28T09:42:43;19.45;64.63
61000;SHT31;46879;45.658;11.814;2023-04-28T09:47:45;19.43;64.52
61000;SHT31;46879;45.658;11.814;2023-04-28T09:52:56;19.43;64.50
61000;SHT31;46879;45.658;11.814;2023-04-28T09:58:02;19.45;64.40
61000;SHT31;46879;45.658;11.814;2023-04-28T10:03:07;19.43;64.50
61000;SHT31;46879;45.658;11.814;2023-04-28T10:08:08;19.45;64.13
61000;SHT31;46879;45.658;11.814;2023-04-28T10:13:09;19.45;64.19
61000;SHT31;46879;45.658;11.814;2023-04-28T10:18:14;19.45;64.03
61000;SHT31;46879;45.658;11.814;2023-04-28T10:23:45;19.49;63.91
61000;SHT31;46879;45.658;11.814;2023-04-28T10:28:49;19.49;64.08
61000;SHT31;46879;45.658;11.814;2023-04-28T10:33:50;19.47;63.81
61000;SHT31;46879;45.658;11.814;2023-04-28T10:39:10;19.47;64.78
61000;SHT31;46879;45.658;11.814;2023-04-28T10:55:33;19.39;64.63
61000;SHT31;46879;45.658;11.814;2023-04-28T11:00:39;19.40;64.52
61000;SHT31;46879;45.658;11.814;2023-04-28T11:06:34;19.43;65.01
61000;SHT31;46879;45.658;11.814;2023-04-28T11:11:35;19.37;64.79
61000;SHT31;46879;45.658;11.814;2023-04-28T11:16:51;19.37;64.65
61000;SHT31;46879;45.658;11.814;2023-04-28T11:21:55;19.37;64.48
61000;SHT31;46879;45.658;11.814;2023-04-28T11:26:57;19.37;64.45
61000;SHT31;46879;45.658;11.814;2023-04-28T11:31:58;19.36;64.55
61000;SHT31;46879;45.658;11.814;2023-04-28T11:37:00;19.34;64.73
61000;SHT31;46879;45.658;11.814;2023-04-28T11:42:08;19.34;64.46
61000;SHT31;46879;45.658;11.814;2023-04-28T11:47:09;19.39;64.08
61000;SHT31;46879;45.658;11.814;2023-04-28T11:52:11;19.37;57.65
61000;SHT31;46879;45.658;11.814;2023-04-28T11:57:19;19.36;59.54
61000;SHT31;46879;45.658;11.814;2023-04-28T12:02:27;19.36;61.35
61000;SHT31;46879;45.658;11.814;2023-04-28T12:07:40;19.36;61.71
61000;SHT31;46879;45.658;11.814;2023-04-28T12:12:42;19.39;59.96
61000;SHT31;46879;45.658;11.814;2023-04-28T12:17:43;19.36;60.53
61000;SHT31;46879;45.658;11.814;2023-04-28T12:22:47;19.42;60.35
61000;SHT31;46879;45.658;11.814;2023-04-28T12:28:05;19.40;59.77
61000;SHT31;46879;45.658;11.814;2023-04-28T12:33:23;19.40;61.27
61000;SHT31;46879;45.658;11.814;2023-04-28T12:38:25;19.43;58.05
61000;SHT31;46879;45.658;11.814;2023-04-28T12:43:26;19.42;55.80
61000;SHT31;46879;45.658;11.814;2023-04-28T12:48:28;19.43;57.93
61000;SHT31;46879;45.658;11.814;2023-04-28T12:53:29;19.40;61.13
61000;SHT31;46879;45.658;11.814;2023-04-28T12:58:30;19.42;56.93
61000;SHT31;46879;45.658;11.814;2023-04-28T13:03:31;19.47;61.69
61000;SHT31;46879;45.658;11.814;2023-04-28T13:08:31;19.46;62.26
61000;SHT31;46879;45.658;11.814;2023-04-28T13:13:33;19.47;61.98
61000;SHT31;46879;45.658;11.814;2023-04-28T13:18:34;19.46;57.82
61000;SHT31;46879;45.658;11.814;2023-04-28T13:23:34;19.46;58.54
61000;SHT31;46879;45.658;11.814;2023-04-28T13:28:35;19.49;61.50
61000;SHT31;46879;45.658;11.814;2023-04-28T13:33:36;19.51;60.80
61000;SHT31;46879;45.658;11.814;2023-04-28T13:38:36;19.49;56.79
61000;SHT31;46879;45.658;11.814;2023-04-28T13:43:37;19.47;55.34
61000;SHT31;46879;45.658;11.814;2023-04-28T13:48:38;19.46;53.99
61000;SHT31;46879;45.658;11.814;2023-04-28T13:53:39;19.47;55.75
61000;SHT31;46879;45.658;11.814;2023-04-28T13:58:39;19.45;56.35
61000;SHT31;46879;45.658;11.814;2023-04-28T14:03:40;19.46;56.05
61000;SHT31;46879;45.658;11.814;2023-04-28T14:08:41;19.47;56.94
61000;SHT31;46879;45.658;11.814;2023-04-28T14:13:41;19.45;56.39
61000;SHT31;46879;45.658;11.814;2023-04-28T14:18:42;19.47;56.98
61000;SHT31;46879;45.658;11.814;2023-04-28T14:23:43;19.46;57.62
61000;SHT31;46879;45.658;11.814;2023-04-28T14:28:43;19.45;56.26
61000;SHT31;46879;45.658;11.814;2023-04-28T14:33:44;19.45;56.86
61000;SHT31;46879;45.658;11.814;2023-04-28T14:38:44;19.43;56.52
61000;SHT31;46879;45.658;11.814;2023-04-28T14:43:45;19.46;56.59
61000;SHT31;46879;45.658;11.814;2023-04-28T14:48:46;19.46;57.06
61000;SHT31;46879;45.658;11.814;2023-04-28T14:53:46;19.43;55.65
61000;SHT31;46879;45.658;11.814;2023-04-28T14:58:48;19.40;56.05
61000;SHT31;46879;45.658;11.814;2023-04-28T15:03:49;19.43;55.75
61000;SHT31;46879;45.658;11.814;2023-04-28T15:08:49;19.40;55.98
61000;SHT31;46879;45.658;11.814;2023-04-28T15:13:50;19.40;55.30
61000;SHT31;46879;45.658;11.814;2023-04-28T15:18:50;19.42;53.71
61000;SHT31;46879;45.658;11.814;2023-04-28T15:23:51;19.42;53.83
61000;SHT31;46879;45.658;11.814;2023-04-28T15:28:52;19.39;52.72
61000;SHT31;46879;45.658;11.814;2023-04-28T15:33:54;19.40;54.16
61000;SHT31;46879;45.658;11.814;2023-04-28T15:38:54;19.39;53.07
61000;SHT31;46879;45.658;11.814;2023-04-28T15:43:55;19.37;54.28
61000;SHT31;46879;45.658;11.814;2023-04-28T15:48:57;19.39;55.14
61000;SHT31;46879;45.658;11.814;2023-04-28T15:53:57;19.36;53.96
61000;SHT31;46879;45.658;11.814;2023-04-28T15:58:58;19.40;52.75
61000;SHT31;46879;45.658;11.814;2023-04-28T16:03:58;19.36;53.79
61000;SHT31;46879;45.658;11.814;2023-04-28T16:08:59;19.36;53.56
61000;SHT31;46879;45.658;11.814;2023-04-28T16:14:00;19.36;54.71
61000;SHT31;46879;45.658;11.814;2023-04-28T16:19:00;19.36;54.98
61000;SHT31;46879;45.658;11.814;2023-04-28T16:24:01;19.34;54.98
61000;SHT31;46879;45.658;11.814;2023-04-28T16:29:03;19.36;55.26
61000;SHT31;46879;45.658;11.814;2023-04-28T16:34:03;19.36;54.64
61000;SHT31;46879;45.658;11.814;2023-04-28T16:39:04;19.36;54.39
61000;SHT31;46879;45.658;11.814;2023-04-28T16:44:05;19.34;53.67
61000;SHT31;46879;45.658;11.814;2023-04-28T16:49:05;19.36;54.82
61000;SHT31;46879;45.658;11.814;2023-04-28T16:54:06;19.33;54.59
61000;SHT31;46879;45.658;11.814;2023-04-28T16:59:07;19.36;55.95
61000;SHT31;46879;45.658;11.814;2023-04-28T17:04:07;19.49;57.01
61000;SHT31;46879;45.658;11.814;2023-04-28T17:09:08;19.49;58.14
61000;SHT31;46879;45.658;11.814;2023-04-28T17:14:09;19.45;59.26
61000;SHT31;46879;45.658;11.814;2023-04-28T17:19:12;19.47;59.69
61000;SHT31;46879;45.658;11.814;2023-04-28T17:24:13;19.45;59.99
61000;SHT31;46879;45.658;11.814;2023-04-28T17:29:14;19.46;60.19
61000;SHT31;46879;45.658;11.814;2023-04-28T17:34:15;19.46;60.17
61000;SHT31;46879;45.658;11.814;2023-04-28T17:39:16;19.47;60.35
61000;SHT31;46879;45.658;11.814;2023-04-28T17:44:17;19.46;60.29
61000;SHT31;46879;45.658;11.814;2023-04-28T17:49:17;19.43;60.35
61000;SHT31;46879;45.658;11.814;2023-04-28T17:54:18;19.46;60.49
61000;SHT31;46879;45.658;11.814;2023-04-28T17:59:18;19.47;60.73
61000;SHT31;46879;45.658;11.814;2023-04-28T18:04:19;19.45;61.01
61000;SHT31;46879;45.658;11.814;2023-04-28T18:09:20;19.46;61.84
61000;SHT31;46879;45.658;11.814;2023-04-28T18:14:20;19.45;61.98
61000;SHT31;46879;45.658;11.814;2023-04-28T18:19:21;19.46;62.15
61000;SHT31;46879;45.658;11.814;2023-04-28T18:24:22;19.49;62.37
61000;SHT31;46879;45.658;11.814;2023-04-28T18:29:23;19.49;62.85
61000;SHT31;46879;45.658;11.814;2023-04-28T18:34:24;19.47;63.25
61000;SHT31;46879;45.658;11.814;2023-04-28T18:39:25;19.46;63.56
61000;SHT31;46879;45.658;11.814;2023-04-28T18:44:25;19.45;63.72
61000;SHT31;46879;45.658;11.814;2023-04-28T18:49:26;19.46;63.86
61000;SHT31;46879;45.658;11.814;2023-04-28T18:54:26;19.46;63.98
61000;SHT31;46879;45.658;11.814;2023-04-28T18:59:27;19.45;64.01
61000;SHT31;46879;45.658;11.814;2023-04-28T19:04:28;19.46;63.90
61000;SHT31;46879;45.658;11.814;2023-04-28T19:09:29;19.46;63.88
61000;SHT31;46879;45.658;11.814;2023-04-28T19:14:30;19.46;63.89
61000;SHT31;46879;45.658;11.814;2023-04-28T19:19:31;19.46;63.96
61000;SHT31;46879;45.658;11.814;2023-04-28T19:24:32;19.46;64.06
61000;SHT31;46879;45.658;11.814;2023-04-28T19:29:33;19.46;64.14
61000;SHT31;46879;45.658;11.814;2023-04-28T19:34:33;19.53;64.73
61000;SHT31;46879;45.658;11.814;2023-04-28T19:39:34;19.66;66.36
61000;SHT31;46879;45.658;11.814;2023-04-28T19:44:35;19.61;66.27
61000;SHT31;46879;45.658;11.814;2023-04-28T19:49:37;19.60;65.78
61000;SHT31;46879;45.658;11.814;2023-04-28T19:54:40;19.59;65.08
61000;SHT31;46879;45.658;11.814;2023-04-28T19:59:42;19.64;65.19
61000;SHT31;46879;45.658;11.814;2023-04-28T20:04:43;19.70;65.55
61000;SHT31;46879;45.658;11.814;2023-04-28T20:09:44;19.73;65.61
61000;SHT31;46879;45.658;11.814;2023-04-28T20:14:44;19.71;65.50
61000;SHT31;46879;45.658;11.814;2023-04-28T20:19:45;19.75;65.06
61000;SHT31;46879;45.658;11.814;2023-04-28T20:24:45;19.79;65.11
61000;SHT31;46879;45.658;11.814;2023-04-28T20:29:46;19.78;64.88
61000;SHT31;46879;45.658;11.814;2023-04-28T20:34:47;19.78;65.54
61000;SHT31;46879;45.658;11.814;2023-04-28T20:39:48;19.84;65.23
61000;SHT31;46879;45.658;11.814;2023-04-28T20:44:49;19.87;65.12
61000;SHT31;46879;45.658;11.814;2023-04-28T20:49:50;19.78;65.11
61000;SHT31;46879;45.658;11.814;2023-04-28T20:54:50;19.73;65.23
61000;SHT31;46879;45.658;11.814;2023-04-28T20:59:53;19.73;65.27
61000;SHT31;46879;45.658;11.814;2023-04-28T21:04:53;19.70;65.20
61000;SHT31;46879;45.658;11.814;2023-04-28T21:09:54;19.67;65.13
61000;SHT31;46879;45.658;11.814;2023-04-28T21:14:55;19.66;65.09
61000;SHT31;46879;45.658;11.814;2023-04-28T21:19:56;19.63;65.06
61000;SHT31;46879;45.658;11.814;2023-04-28T21:24:56;19.64;64.92
61000;SHT31;46879;45.658;11.814;2023-04-28T21:29:57;19.63;64.88
61000;SHT31;46879;45.658;11.814;2023-04-28T21:34:58;19.60;64.90
61000;SHT31;46879;45.658;11.814;2023-04-28T21:39:58;19.61;64.79
61000;SHT31;46879;45.658;11.814;2023-04-28T21:44:59;19.60;64.81
61000;SHT31;46879;45.658;11.814;2023-04-28T21:50:00;19.61;65.11
61000;SHT31;46879;45.658;11.814;2023-04-28T21:55:00;19.70;64.52
61000;SHT31;46879;45.658;11.814;2023-04-28T22:00:01;19.71;64.51
61000;SHT31;46879;45.658;11.814;2023-04-28T22:05:02;19.79;65.22
61000;SHT31;46879;45.658;11.814;2023-04-28T22:10:05;19.82;64.91
61000;SHT31;46879;45.658;11.814;2023-04-28T22:15:06;19.81;64.90
61000;SHT31;46879;45.658;11.814;2023-04-28T22:20:07;19.85;65.25
61000;SHT31;46879;45.658;11.814;2023-04-28T22:25:09;19.82;65.89
61000;SHT31;46879;45.658;11.814;2023-04-28T22:30:12;19.77;65.88
61000;SHT31;46879;45.658;11.814;2023-04-28T22:35:13;19.73;66.19
61000;SHT31;46879;45.658;11.814;2023-04-28T22:40:15;19.73;66.10
61000;SHT31;46879;45.658;11.814;2023-04-28T22:45:16;19.73;66.79
61000;SHT31;46879;45.658;11.814;2023-04-28T22:50:17;19.68;66.77
61000;SHT31;46879;45.658;11.814;2023-04-28T22:55:18;19.70;66.66
61000;SHT31;46879;45.658;11.814;2023-04-28T23:00:19;19.67;67.04
61000;SHT31;46879;45.658;11.814;2023-04-28T23:05:20;19.67;67.02
61000;SHT31;46879;45.658;11.814;2023-04-28T23:10:20;19.67;67.19
61000;SHT31;46879;45.658;11.814;2023-04-28T23:15:21;19.66;67.18
61000;SHT31;46879;45.658;11.814;2023-04-28T23:20:21;19.64;67.34
61000;SHT31;46879;45.658;11.814;2023-04-28T23:25:22;19.64;67.23
61000;SHT31;46879;45.658;11.814;2023-04-28T23:30:22;19.64;67.28
61000;SHT31;46879;45.658;11.814;2023-04-28T23:35:23;19.66;67.25
61000;SHT31;46879;45.658;11.814;2023-04-28T23:40:24;19.64;67.45
61000;SHT31;46879;45.658;11.814;2023-04-28T23:45:25;19.63;67.50
61000;SHT31;46879;45.658;11.814;2023-04-28T23:50:25;19.64;67.38
61000;SHT31;46879;45.658;11.814;2023-04-28T23:55:27;19.63;68.24
